createdAt,value
2023-01-18T00:01:19.388Z,9.85
2023-01-18T00:03:46.312Z,9.93
2023-01-18T00:06:13.460Z,8.73
2023-01-18T00:08:42.327Z,9.60
2023-01-18T00:11:15.794Z,9.00
2023-01-18T00:13:43.335Z,9.18
2023-01-18T00:16:19.287Z,9.52
2023-01-18T00:18:57.182Z,8.55
2023-01-18T00:21:26.843Z,9.30
2023-01-18T00:23:55.800Z,8.73
2023-01-18T00:26:22.354Z,8.27
2023-01-18T00:28:48.991Z,8.60
2023-01-18T00:31:20.844Z,8.30
2023-01-18T00:33:49.920Z,8.07
2023-01-18T00:36:18.044Z,7.28
2023-01-18T00:38:52.161Z,8.30
2023-01-18T00:41:21.195Z,8.05
2023-01-18T00:43:48.200Z,8.27
2023-01-18T00:46:22.343Z,8.10
2023-01-18T00:48:49.991Z,7.93
2023-01-18T00:51:24.194Z,8.15
2023-01-18T00:53:51.602Z,8.02
2023-01-18T00:56:21.654Z,7.50
2023-01-18T00:58:48.718Z,8.63
2023-01-18T01:01:15.920Z,8.02
2023-01-18T01:04:01.030Z,8.48
2023-01-18T01:06:44.511Z,7.60
2023-01-18T01:09:28.641Z,8.68
2023-01-18T01:12:16.900Z,8.55
2023-01-18T01:15:06.285Z,8.02
2023-01-18T01:17:55.308Z,8.52
2023-01-18T01:20:42.216Z,9.07
2023-01-18T01:23:37.710Z,7.90
2023-01-18T01:26:10.953Z,8.52
2023-01-18T01:28:49.844Z,8.90
2023-01-18T01:31:18.356Z,8.35
2023-01-18T01:33:46.601Z,8.55
2023-01-18T01:36:17.606Z,8.38
2023-01-18T01:38:44.243Z,8.65
2023-01-18T01:41:28.575Z,8.02
2023-01-18T01:43:58.804Z,7.38
2023-01-18T01:46:56.010Z,8.80
2023-01-18T01:49:33.303Z,8.70
2023-01-18T01:52:05.386Z,8.68
2023-01-18T01:54:56.187Z,8.25
2023-01-18T01:57:31.099Z,7.70
2023-01-18T02:00:15.595Z,7.38
2023-01-18T02:02:48.872Z,7.75
2023-01-18T02:05:18.309Z,7.72
2023-01-18T02:07:45.659Z,7.63
2023-01-18T02:10:12.256Z,7.28
2023-01-18T02:12:42.458Z,8.15
2023-01-18T02:15:09.740Z,7.97
2023-01-18T02:18:07.004Z,8.07
2023-01-18T02:21:07.687Z,8.48
2023-01-18T02:24:00.326Z,7.93
2023-01-18T02:26:48.658Z,8.15
2023-01-18T02:29:18.781Z,8.57
2023-01-18T02:32:29.272Z,8.15
2023-01-18T02:35:17.831Z,8.57
2023-01-18T02:38:07.419Z,8.25
2023-01-18T02:40:51.455Z,7.60
2023-01-18T02:43:40.770Z,7.97
2023-01-18T02:46:32.523Z,7.53
2023-01-18T02:49:06.468Z,8.43
2023-01-18T02:51:33.400Z,8.30
2023-01-18T02:54:02.518Z,7.80
2023-01-18T02:56:47.188Z,8.55
2023-01-18T02:59:34.870Z,8.32
2023-01-18T03:02:26.386Z,8.50
2023-01-18T03:04:55.454Z,7.55
2023-01-18T03:07:35.520Z,8.40
2023-01-18T03:10:06.780Z,8.68
2023-01-18T03:12:53.480Z,7.90
2023-01-18T03:15:44.249Z,8.68
2023-01-18T03:18:34.325Z,8.35
2023-01-18T03:21:05.489Z,7.93
2023-01-18T03:23:39.938Z,8.50
2023-01-18T03:26:16.407Z,7.88
2023-01-18T03:29:12.698Z,8.07
2023-01-18T03:32:07.683Z,8.82
2023-01-18T03:35:03.537Z,7.82
2023-01-18T03:37:38.351Z,8.68
2023-01-18T03:40:18.176Z,8.50
2023-01-18T03:43:08.852Z,8.85
2023-01-18T03:45:49.052Z,9.35
2023-01-18T03:48:16.493Z,9.43
2023-01-18T03:50:52.452Z,9.13
2023-01-18T03:53:48.041Z,8.40
2023-01-18T03:56:27.667Z,8.32
2023-01-18T03:59:03.486Z,7.88
2023-01-18T04:01:30.706Z,8.73
2023-01-18T04:04:00.036Z,7.93
2023-01-18T04:06:27.756Z,7.95
2023-01-18T04:08:54.201Z,8.38
2023-01-18T04:11:20.668Z,8.48
2023-01-18T04:13:47.181Z,8.55
2023-01-18T04:16:13.812Z,8.00
2023-01-18T04:18:40.636Z,7.85
2023-01-18T04:21:07.401Z,8.15
2023-01-18T04:23:33.883Z,8.60
2023-01-18T04:26:00.374Z,8.55
2023-01-18T04:28:26.835Z,7.65
2023-01-18T04:30:56.360Z,8.20
2023-01-18T04:33:26.479Z,7.63
2023-01-18T04:35:56.989Z,7.35
2023-01-18T04:38:23.676Z,7.57
2023-01-18T04:40:50.700Z,7.55
2023-01-18T04:43:17.528Z,7.80
2023-01-18T04:45:53.081Z,7.97
2023-01-18T04:48:19.596Z,7.65
2023-01-18T04:50:46.561Z,8.50
2023-01-18T04:53:13.017Z,9.05
2023-01-18T04:55:39.475Z,8.30
2023-01-18T04:58:05.969Z,8.00
2023-01-18T05:00:32.492Z,8.73
2023-01-18T05:02:59.304Z,8.75
2023-01-18T05:05:26.464Z,8.75
2023-01-18T05:07:53.281Z,9.15
2023-01-18T05:10:19.842Z,8.27
2023-01-18T05:12:46.358Z,8.45
2023-01-18T05:15:12.918Z,8.88
2023-01-18T05:17:39.457Z,7.70
2023-01-18T05:20:07.716Z,7.95
2023-01-18T05:22:34.711Z,8.35
2023-01-18T05:25:01.901Z,7.53
2023-01-18T05:27:28.391Z,8.38
2023-01-18T05:29:54.918Z,8.23
2023-01-18T05:32:21.446Z,7.38
2023-01-18T05:34:47.927Z,8.48
2023-01-18T05:37:14.384Z,8.82
2023-01-18T05:39:40.898Z,8.93
2023-01-18T05:42:08.419Z,8.68
2023-01-18T05:44:34.923Z,8.68
2023-01-18T05:47:01.604Z,8.43
2023-01-18T05:49:29.375Z,8.43
2023-01-18T05:51:55.870Z,8.65
2023-01-18T05:54:22.442Z,9.60
2023-01-18T05:56:48.925Z,10.05
2023-01-18T05:59:15.642Z,9.40
2023-01-18T06:01:42.717Z,10.00
2023-01-18T06:04:09.374Z,9.48
2023-01-18T06:06:35.987Z,9.20
2023-01-18T06:09:03.421Z,8.95
2023-01-18T06:11:29.944Z,9.30
2023-01-18T06:13:56.486Z,10.20
2023-01-18T06:16:24.393Z,9.88
2023-01-18T06:18:50.938Z,9.40
2023-01-18T06:21:17.863Z,9.13
2023-01-18T06:23:44.714Z,8.57
2023-01-18T06:26:11.217Z,9.25
2023-01-18T06:28:37.715Z,8.93
2023-01-18T06:31:07.706Z,8.90
2023-01-18T06:33:34.985Z,8.70
2023-01-18T06:36:01.998Z,8.73
2023-01-18T06:38:29.678Z,8.13
2023-01-18T06:40:56.209Z,9.27
2023-01-18T06:43:22.989Z,8.73
2023-01-18T06:45:56.859Z,9.43
2023-01-18T06:48:24.872Z,10.25
2023-01-18T06:50:52.762Z,9.63
2023-01-18T06:53:22.415Z,9.50
2023-01-18T06:56:01.648Z,10.20
2023-01-18T06:58:30.996Z,10.40
2023-01-18T07:01:00.457Z,11.40
2023-01-18T07:03:31.216Z,11.43
2023-01-18T07:06:02.217Z,10.48
2023-01-18T07:08:34.262Z,11.68
2023-01-18T07:11:06.139Z,12.23
2023-01-18T07:13:32.663Z,9.32
2023-01-18T07:16:01.872Z,10.38
2023-01-18T07:18:30.476Z,10.05
2023-01-18T07:21:08.607Z,9.75
2023-01-18T07:23:38.051Z,10.18
2023-01-18T07:26:08.847Z,9.82
2023-01-18T07:28:36.219Z,10.20
2023-01-18T07:31:04.725Z,10.63
2023-01-18T07:33:31.830Z,10.55
2023-01-18T07:35:59.055Z,11.07
2023-01-18T07:38:26.034Z,10.75
2023-01-18T07:41:02.079Z,11.50
2023-01-18T07:43:30.873Z,12.63
2023-01-18T07:45:58.318Z,12.80
2023-01-18T07:48:27.068Z,11.63
2023-01-18T07:50:56.156Z,12.45
2023-01-18T07:53:24.347Z,10.88
2023-01-18T07:55:51.139Z,12.02
2023-01-18T07:58:18.827Z,11.57
2023-01-18T08:00:46.512Z,13.52
2023-01-18T08:03:15.775Z,13.45
2023-01-18T08:05:44.045Z,18.25
2023-01-18T08:08:15.453Z,15.93
2023-01-18T08:10:43.517Z,11.98
2023-01-18T08:13:10.931Z,10.55
2023-01-18T08:15:39.109Z,9.90
2023-01-18T08:18:08.133Z,10.43
2023-01-18T08:20:35.193Z,11.18
2023-01-18T08:23:02.423Z,11.43
2023-01-18T08:25:32.686Z,50.15
2023-01-18T08:28:02.320Z,21.90
2023-01-18T08:30:36.486Z,15.90
2023-01-18T08:33:04.523Z,12.13
2023-01-18T08:35:39.948Z,13.05
2023-01-18T08:38:06.571Z,15.40
2023-01-18T08:40:33.012Z,13.43
2023-01-18T08:43:02.277Z,12.20
2023-01-18T08:45:29.919Z,11.00
2023-01-18T08:48:07.292Z,11.25
2023-01-18T08:50:36.113Z,11.35
2023-01-18T08:53:04.012Z,12.05
2023-01-18T08:55:30.963Z,11.18
2023-01-18T08:57:58.832Z,11.27
2023-01-18T09:00:30.186Z,12.93
2023-01-18T09:02:58.494Z,12.05
2023-01-18T09:05:26.972Z,11.63
2023-01-18T09:07:55.311Z,12.57
2023-01-18T09:10:23.138Z,12.07
2023-01-18T09:12:51.619Z,15.82
2023-01-18T09:15:19.313Z,14.85
2023-01-18T09:17:46.293Z,15.18
2023-01-18T09:20:13.115Z,16.60
2023-01-18T09:22:39.883Z,12.68
2023-01-18T09:25:06.947Z,12.10
2023-01-18T09:27:33.731Z,12.15
2023-01-18T09:30:00.548Z,12.13
2023-01-18T09:32:27.429Z,16.80
2023-01-18T09:34:54.795Z,15.38
2023-01-18T09:37:22.176Z,14.98
2023-01-18T09:39:52.760Z,16.10
2023-01-18T09:42:28.668Z,17.52
2023-01-18T09:45:01.047Z,15.90
2023-01-18T09:47:34.340Z,15.15
2023-01-18T09:50:15.220Z,14.32
2023-01-18T09:52:57.260Z,14.73
2023-01-18T09:55:46.404Z,14.55
2023-01-18T09:58:47.464Z,13.98
2023-01-18T10:01:26.466Z,14.27
2023-01-18T10:04:00.828Z,13.00
2023-01-18T10:06:43.323Z,11.90
2023-01-18T10:09:26.236Z,10.77
2023-01-18T10:12:00.214Z,10.90
2023-01-18T10:14:56.481Z,10.68
2023-01-18T10:17:36.157Z,11.55
2023-01-18T10:20:23.930Z,10.48
2023-01-18T10:22:59.308Z,16.08
2023-01-18T10:25:53.183Z,11.40
2023-01-18T10:28:41.095Z,12.00
2023-01-18T10:31:22.980Z,11.35
2023-01-18T10:33:56.296Z,11.45
2023-01-18T10:36:33.384Z,10.75
2023-01-18T10:39:28.009Z,10.63
2023-01-18T10:42:01.850Z,10.75
2023-01-18T10:44:29.308Z,11.82
2023-01-18T10:47:01.268Z,9.68
2023-01-18T10:49:36.503Z,10.68
2023-01-18T10:52:32.475Z,10.32
2023-01-18T10:55:03.411Z,9.85
2023-01-18T10:57:36.864Z,10.23
2023-01-18T11:00:30.651Z,10.55
2023-01-18T11:03:00.047Z,11.00
2023-01-18T11:05:38.256Z,10.68
2023-01-18T11:08:33.518Z,10.40
2023-01-18T11:11:50.567Z,10.70
2023-01-18T11:14:30.563Z,10.50
2023-01-18T11:17:11.333Z,11.35
2023-01-18T11:19:39.326Z,10.25
2023-01-18T11:22:13.513Z,10.23
2023-01-18T11:24:40.287Z,10.85
2023-01-18T11:27:23.026Z,11.48
2023-01-18T11:29:50.456Z,10.80
2023-01-18T11:32:27.812Z,10.57
2023-01-18T11:34:59.741Z,11.35
2023-01-18T11:37:37.202Z,11.02
2023-01-18T11:40:18.911Z,11.45
2023-01-18T11:42:48.603Z,11.50
2023-01-18T11:45:26.622Z,12.55
2023-01-18T11:48:22.620Z,12.10
2023-01-18T11:50:58.850Z,11.68
2023-01-18T11:53:55.593Z,11.10
2023-01-18T11:56:40.767Z,12.13
2023-01-18T11:59:24.690Z,11.88
2023-01-18T12:02:34.391Z,11.20
2023-01-18T12:05:36.482Z,11.13
2023-01-18T12:08:43.815Z,11.43
2023-01-18T12:11:32.804Z,26.97
2023-01-18T12:14:30.991Z,15.82
2023-01-18T12:17:07.105Z,14.20
2023-01-18T12:20:22.815Z,13.27
2023-01-18T12:23:29.783Z,12.68
2023-01-18T12:26:24.407Z,13.13
2023-01-18T12:28:59.988Z,12.93
2023-01-18T12:32:14.928Z,13.77
2023-01-18T12:34:56.153Z,12.85
2023-01-18T12:37:49.349Z,13.02
2023-01-18T12:40:33.827Z,12.65
2023-01-18T12:43:37.717Z,12.98
2023-01-18T12:46:21.451Z,12.75
2023-01-18T12:49:00.581Z,12.23
2023-01-18T12:51:34.124Z,12.20
2023-01-18T12:54:15.785Z,12.90
2023-01-18T12:56:49.770Z,12.77
2023-01-18T12:59:40.757Z,13.45
2023-01-18T13:02:33.427Z,12.65
2023-01-18T13:05:06.869Z,13.07
2023-01-18T13:07:44.007Z,12.85
2023-01-18T13:10:26.903Z,12.90
2023-01-18T13:12:56.951Z,13.15
2023-01-18T13:15:42.770Z,13.25
2023-01-18T13:18:25.955Z,12.57
2023-01-18T13:21:16.712Z,14.07
2023-01-18T13:24:17.145Z,14.23
2023-01-18T13:26:45.374Z,13.55
2023-01-18T13:29:30.852Z,15.20
2023-01-18T13:31:58.349Z,15.68
2023-01-18T13:34:33.565Z,14.73
2023-01-18T13:37:14.273Z,15.05
2023-01-18T13:39:48.215Z,14.55
2023-01-18T13:42:20.430Z,14.38
2023-01-18T13:44:50.052Z,14.50
2023-01-18T13:47:45.814Z,14.23
2023-01-18T13:50:40.007Z,14.50
2023-01-18T13:53:15.657Z,14.45
2023-01-18T13:56:04.902Z,16.45
2023-01-18T13:58:34.879Z,15.65
2023-01-18T14:01:05.090Z,16.17
2023-01-18T14:03:42.886Z,16.05
2023-01-18T14:06:30.106Z,16.75
2023-01-18T14:11:37.945Z,13.38
2023-01-18T14:14:32.429Z,14.50
2023-01-18T14:17:07.495Z,15.90
2023-01-18T14:20:20.221Z,18.30
2023-01-18T14:23:17.093Z,13.40
2023-01-18T14:26:05.940Z,14.13
2023-01-18T14:28:52.186Z,12.98
2023-01-18T14:31:28.998Z,18.43
2023-01-18T14:33:55.748Z,19.48
2023-01-18T14:36:27.516Z,17.85
2023-01-18T14:39:13.878Z,20.67
2023-01-18T14:41:45.473Z,15.15
2023-01-18T14:44:58.306Z,13.82
2023-01-18T14:47:32.514Z,12.98
2023-01-18T14:50:03.899Z,13.43
2023-01-18T14:52:34.376Z,24.63
2023-01-18T14:55:01.087Z,14.00
2023-01-18T14:57:27.675Z,16.15
2023-01-18T15:00:08.262Z,15.07
2023-01-18T15:02:38.714Z,16.45
2023-01-18T15:05:14.158Z,48.63
2023-01-18T15:07:41.529Z,39.08
2023-01-18T15:10:09.611Z,32.50
2023-01-18T15:12:38.754Z,14.85
2023-01-18T15:15:18.134Z,19.33
2023-01-18T15:17:44.686Z,14.15
2023-01-18T15:20:15.179Z,11.60
2023-01-18T15:22:42.926Z,12.05
2023-01-18T15:25:26.170Z,11.18
2023-01-18T15:27:54.560Z,12.68
2023-01-18T15:30:24.265Z,10.85
2023-01-18T15:32:57.443Z,11.45
2023-01-18T15:35:25.734Z,11.07
2023-01-18T15:37:52.479Z,11.93
2023-01-18T15:40:18.942Z,11.68
2023-01-18T15:43:05.781Z,24.15
2023-01-18T15:45:40.272Z,12.40
2023-01-18T15:48:22.432Z,12.65
2023-01-18T15:50:53.601Z,19.38
2023-01-18T15:53:29.610Z,78.03
2023-01-18T15:56:03.293Z,30.02
2023-01-18T15:58:47.478Z,19.17
2023-01-18T16:01:13.949Z,16.35
2023-01-18T16:03:58.571Z,32.95
2023-01-18T16:06:25.919Z,20.42
2023-01-18T16:09:12.830Z,22.05
2023-01-18T16:14:27.677Z,19.65
2023-01-18T16:17:22.809Z,29.88
2023-01-18T16:19:57.677Z,16.70
2023-01-18T16:22:28.797Z,18.52
2023-01-18T16:25:15.051Z,25.00
2023-01-18T16:27:51.358Z,17.33
2023-01-18T16:30:22.943Z,18.67
2023-01-18T16:32:49.706Z,17.42
2023-01-18T16:35:21.510Z,17.02
2023-01-18T16:37:49.977Z,16.42
2023-01-18T16:40:20.555Z,17.10
2023-01-18T16:43:01.520Z,15.60
2023-01-18T16:45:31.073Z,15.98
2023-01-18T16:47:57.918Z,17.23
2023-01-18T16:50:24.831Z,15.75
2023-01-18T16:52:51.316Z,15.65
2023-01-18T16:55:18.216Z,16.88
2023-01-18T16:57:45.629Z,15.68
2023-01-18T17:00:24.443Z,58.47
2023-01-18T17:02:51.712Z,76.53
2023-01-18T17:05:18.940Z,38.90
2023-01-18T17:07:45.845Z,27.02
2023-01-18T17:10:36.281Z,52.00
2023-01-18T17:13:03.228Z,48.95
2023-01-18T17:15:32.377Z,33.30
2023-01-18T17:17:58.905Z,22.08
2023-01-18T17:20:27.259Z,22.45
2023-01-18T17:22:55.575Z,19.13
2023-01-18T17:25:23.801Z,23.20
2023-01-18T17:27:51.027Z,18.25
2023-01-18T17:30:22.110Z,19.00
2023-01-18T17:32:49.552Z,20.63
2023-01-18T17:35:19.954Z,17.90
2023-01-18T17:37:46.480Z,17.17
2023-01-18T17:40:22.511Z,24.48
2023-01-18T17:42:51.772Z,29.80
2023-01-18T17:45:18.596Z,18.40
2023-01-18T17:47:45.286Z,17.42
2023-01-18T17:50:18.937Z,17.33
2023-01-18T17:52:45.529Z,17.88
2023-01-18T17:55:14.377Z,75.05
2023-01-18T17:57:42.195Z,34.72
2023-01-18T18:00:11.895Z,19.30
2023-01-18T18:02:38.427Z,16.55
2023-01-18T18:05:05.788Z,36.08
2023-01-18T18:07:32.927Z,17.55
2023-01-18T18:10:01.203Z,16.30
2023-01-18T18:12:31.411Z,29.00
2023-01-18T18:14:58.338Z,19.70
2023-01-18T18:17:28.592Z,22.95
2023-01-18T18:19:55.595Z,80.85
2023-01-18T18:22:22.794Z,43.88
2023-01-18T18:24:50.529Z,34.40
2023-01-18T18:27:17.952Z,21.30
2023-01-18T18:29:45.083Z,17.70
2023-01-18T18:32:13.618Z,22.42
2023-01-18T18:34:40.450Z,15.30
2023-01-18T18:37:07.474Z,16.50
2023-01-18T18:39:34.256Z,18.60
2023-01-18T18:42:01.554Z,15.57
2023-01-18T18:44:28.242Z,14.77
2023-01-18T18:46:54.779Z,15.25
2023-01-18T18:49:22.054Z,18.40
2023-01-18T18:51:48.624Z,71.03
2023-01-18T18:54:15.434Z,33.85
2023-01-18T18:56:42.255Z,27.50
2023-01-18T18:59:08.827Z,28.20
2023-01-18T19:01:35.562Z,22.92
2023-01-18T19:04:02.527Z,21.83
2023-01-18T19:06:29.178Z,22.48
2023-01-18T19:08:55.923Z,24.15
2023-01-18T19:11:22.952Z,17.80
2023-01-18T19:13:49.762Z,19.23
2023-01-18T19:16:17.266Z,31.35
2023-01-18T19:18:43.890Z,29.55
2023-01-18T19:21:10.451Z,42.92
2023-01-18T19:23:36.990Z,69.25
2023-01-18T19:26:03.911Z,142.55
2023-01-18T19:28:31.017Z,38.13
2023-01-18T19:31:16.051Z,20.58
2023-01-18T19:33:42.614Z,18.02
2023-01-18T19:36:13.747Z,22.23
2023-01-18T19:38:46.720Z,27.13
2023-01-18T19:41:17.352Z,40.05
2023-01-18T19:43:47.694Z,93.03
2023-01-18T19:46:15.166Z,29.65
2023-01-18T19:48:42.416Z,34.33
2023-01-18T19:51:22.134Z,24.90
2023-01-18T19:53:51.712Z,24.30
2023-01-18T19:56:18.329Z,24.17
2023-01-18T19:58:44.838Z,22.92
2023-01-18T20:01:23.440Z,22.42
2023-01-18T20:03:56.996Z,22.63
2023-01-18T20:06:23.654Z,22.60
2023-01-18T20:08:53.969Z,23.23
2023-01-18T20:11:20.514Z,24.38
2023-01-18T20:13:50.659Z,25.58
2023-01-18T20:16:20.285Z,23.83
2023-01-18T20:18:48.714Z,22.27
2023-01-18T20:21:18.966Z,25.92
2023-01-18T20:23:46.184Z,27.58
2023-01-18T20:26:20.014Z,26.83
2023-01-18T20:28:55.781Z,27.85
2023-01-18T20:31:23.049Z,28.05
2023-01-18T20:33:49.619Z,27.42
2023-01-18T20:36:16.169Z,27.17
2023-01-18T20:38:42.717Z,28.27
2023-01-18T20:41:09.213Z,29.38
2023-01-18T20:43:35.789Z,26.92
2023-01-18T20:46:09.914Z,27.77
2023-01-18T20:48:37.808Z,26.50
2023-01-18T20:51:07.373Z,28.83
2023-01-18T20:53:34.522Z,27.20
2023-01-18T20:56:04.129Z,25.50
2023-01-18T20:58:31.365Z,28.80
2023-01-18T21:01:03.630Z,28.85
2023-01-18T21:03:30.140Z,27.83
2023-01-18T21:05:56.670Z,30.15
2023-01-18T21:08:23.187Z,38.42
2023-01-18T21:10:50.823Z,41.17
2023-01-18T21:13:18.227Z,34.28
2023-01-18T21:15:47.642Z,28.70
2023-01-18T21:18:14.115Z,30.60
2023-01-18T21:20:40.647Z,29.73
2023-01-18T21:23:07.199Z,29.88
2023-01-18T21:25:33.660Z,29.45
2023-01-18T21:28:00.709Z,30.70
2023-01-18T21:30:27.477Z,29.85
2023-01-18T21:32:53.985Z,31.70
2023-01-18T21:35:20.518Z,31.63
2023-01-18T21:37:47.076Z,30.52
2023-01-18T21:40:13.565Z,32.90
2023-01-18T21:42:58.545Z,32.30
2023-01-18T21:45:43.906Z,30.17
2023-01-18T21:48:10.471Z,31.40
2023-01-18T21:50:59.087Z,33.10
2023-01-18T21:53:44.567Z,28.77
2023-01-18T21:56:11.167Z,27.73
2023-01-18T21:58:56.224Z,28.38
2023-01-18T22:01:38.483Z,26.73
2023-01-18T22:04:27.748Z,26.13
2023-01-18T22:06:54.357Z,24.17
2023-01-18T22:09:21.259Z,24.77
2023-01-18T22:11:47.989Z,26.65
2023-01-18T22:14:15.293Z,22.63
2023-01-18T22:16:42.044Z,21.90
2023-01-18T22:19:10.609Z,22.40
2023-01-18T22:21:37.363Z,20.52
2023-01-18T22:24:04.135Z,20.67
2023-01-18T22:26:31.187Z,20.83
2023-01-18T22:28:57.901Z,19.90
2023-01-18T22:31:25.494Z,17.85
2023-01-18T22:33:52.093Z,17.75
2023-01-18T22:36:18.676Z,12.63
2023-01-18T22:38:45.561Z,13.23
2023-01-18T22:41:18.809Z,14.07
2023-01-18T22:43:46.283Z,14.80
2023-01-18T22:46:16.322Z,13.35
2023-01-18T22:48:44.651Z,8.70
2023-01-18T22:51:16.206Z,7.65
2023-01-18T22:53:44.415Z,7.85
2023-01-18T22:56:15.172Z,7.20
2023-01-18T22:58:42.328Z,6.38
2023-01-18T23:01:28.212Z,7.20
2023-01-18T23:04:01.898Z,6.72
2023-01-18T23:06:41.745Z,6.57
2023-01-18T23:09:10.010Z,6.35
2023-01-18T23:11:37.876Z,6.32
2023-01-18T23:14:23.833Z,6.50
2023-01-18T23:17:09.185Z,6.90
2023-01-18T23:19:36.267Z,6.85
2023-01-18T23:22:07.284Z,6.43
2023-01-18T23:24:36.498Z,6.20
2023-01-18T23:27:07.128Z,6.57
2023-01-18T23:29:33.751Z,6.35
2023-01-18T23:32:00.295Z,5.68
2023-01-18T23:34:26.789Z,5.57
2023-01-18T23:36:53.793Z,5.93
2023-01-18T23:39:38.945Z,6.30
2023-01-18T23:42:24.188Z,6.35
2023-01-18T23:45:09.609Z,6.60
2023-01-18T23:47:54.970Z,5.65
2023-01-18T23:50:41.427Z,5.53
2023-01-18T23:53:31.437Z,6.18
2023-01-18T23:55:58.986Z,6.70
2023-01-18T23:58:25.931Z,6.47
